sensor_id;sensor_type;location;lat;lon;timestamp;pressure;altitude;pressure_sealevel;temperature;humidity
80566;BME280;69915;54.862;10.730;2024-01-11T00:01:17;103158.72;;;0.88;100.00
80566;BME280;69915;54.862;10.730;2024-01-11T00:03:43;103164.75;;;0.90;100.00
80566;BME280;69915;54.862;10.730;2024-01-11T00:06:09;103140.38;;;0.91;100.00
80566;BME280;69915;54.862;10.730;2024-01-11T00:08:34;103119.97;;;0.97;100.00
80566;BME280;69915;54.862;10.730;2024-01-11T00:11:00;103122.81;;;0.95;100.00
80566;BME280;69915;54.862;10.730;2024-01-11T00:13:25;103119.47;;;0.93;100.00
80566;BME280;69915;54.862;10.730;2024-01-11T00:15:51;103116.44;;;0.96;100.00
80566;BME280;69915;54.862;10.730;2024-01-11T00:18:17;103118.63;;;0.93;100.00
80566;BME280;69915;54.862;10.730;2024-01-11T00:20:42;103118.13;;;0.89;100.00
80566;BME280;69915;54.862;10.730;2024-01-11T00:23:08;103112.25;;;0.94;100.00
80566;BME280;69915;54.862;10.730;2024-01-11T00:25:34;103108.50;;;0.95;100.00
80566;BME280;69915;54.862;10.730;2024-01-11T00:28:00;103118.31;;;0.88;100.00
80566;BME280;69915;54.862;10.730;2024-01-11T00:30:27;103112.25;;;0.86;100.00
80566;BME280;69915;54.862;10.730;2024-01-11T00:32:52;103105.66;;;0.96;100.00
80566;BME280;69915;54.862;10.730;2024-01-11T00:35:17;103096.59;;;0.97;100.00
80566;BME280;69915;54.862;10.730;2024-01-11T00:37:43;103092.84;;;0.98;100.00
80566;BME280;69915;54.862;10.730;2024-01-11T00:40:09;103083.63;;;0.93;100.00
80566;BME280;69915;54.862;10.730;2024-01-11T00:42:34;103093.03;;;0.89;100.00
80566;BME280;69915;54.862;10.730;2024-01-11T00:45:00;103085.66;;;0.91;100.00
80566;BME280;69915;54.862;10.730;2024-01-11T00:47:26;103093.22;;;0.87;100.00
80566;BME280;69915;54.862;10.730;2024-01-11T00:49:52;103100.47;;;0.87;100.00
80566;BME280;69915;54.862;10.730;2024-01-11T00:52:17;103082.63;;;0.86;100.00
80566;BME280;69915;54.862;10.730;2024-01-11T00:54:43;103082.97;;;0.83;100.00
80566;BME280;69915;54.862;10.730;2024-01-11T00:57:08;103089.03;;;0.85;100.00
80566;BME280;69915;54.862;10.730;2024-01-11T00:59:34;103086.00;;;0.88;100.00
80566;BME280;69915;54.862;10.730;2024-01-11T01:01:59;103087.19;;;0.85;100.00
80566;BME280;69915;54.862;10.730;2024-01-11T01:04:25;103082.28;;;0.89;100.00
80566;BME280;69915;54.862;10.730;2024-01-11T01:06:50;103089.00;;;0.93;100.00
80566;BME280;69915;54.862;10.730;2024-01-11T01:09:15;103100.44;;;0.95;100.00
80566;BME280;69915;54.862;10.730;2024-01-11T01:11:41;103097.28;;;0.91;100.00
80566;BME280;69915;54.862;10.730;2024-01-11T01:14:06;103100.59;;;1.01;100.00
80566;BME280;69915;54.862;10.730;2024-01-11T01:16:32;103103.63;;;0.98;100.00
80566;BME280;69915;54.862;10.730;2024-01-11T01:18:57;103116.25;;;0.98;100.00
80566;BME280;69915;54.862;10.730;2024-01-11T01:21:23;103106.47;;;1.05;100.00
80566;BME280;69915;54.862;10.730;2024-01-11T01:23:49;103102.09;;;1.12;100.00
80566;BME280;69915;54.862;10.730;2024-01-11T01:26:14;103107.81;;;1.09;100.00
80566;BME280;69915;54.862;10.730;2024-01-11T01:28:40;103111.56;;;1.00;100.00
80566;BME280;69915;54.862;10.730;2024-01-11T01:31:06;103104.97;;;1.02;100.00
80566;BME280;69915;54.862;10.730;2024-01-11T01:33:31;103097.91;;;1.01;100.00
80566;BME280;69915;54.862;10.730;2024-01-11T01:35:57;103108.69;;;0.93;100.00
80566;BME280;69915;54.862;10.730;2024-01-11T01:38:23;103121.28;;;1.01;100.00
80566;BME280;69915;54.862;10.730;2024-01-11T01:40:48;103123.34;;;1.07;100.00
80566;BME280;69915;54.862;10.730;2024-01-11T01:43:14;103123.19;;;1.00;100.00
80566;BME280;69915;54.862;10.730;2024-01-11T01:45:40;103132.41;;;1.06;100.00
80566;BME280;69915;54.862;10.730;2024-01-11T01:48:06;103138.16;;;1.03;100.00
80566;BME280;69915;54.862;10.730;2024-01-11T01:50:32;103134.56;;;1.10;100.00
80566;BME280;69915;54.862;10.730;2024-01-11T01:52:58;103128.50;;;1.17;100.00
80566;BME280;69915;54.862;10.730;2024-01-11T01:55:25;103123.31;;;1.15;100.00
80566;BME280;69915;54.862;10.730;2024-01-11T01:57:52;103108.78;;;1.24;100.00
80566;BME280;69915;54.862;10.730;2024-01-11T02:00:19;103110.47;;;1.25;100.00
80566;BME280;69915;54.862;10.730;2024-01-11T02:02:45;103103.06;;;1.27;100.00
80566;BME280;69915;54.862;10.730;2024-01-11T02:05:12;103117.81;;;1.39;100.00
80566;BME280;69915;54.862;10.730;2024-01-11T02:07:40;103128.50;;;1.25;100.00
80566;BME280;69915;54.862;10.730;2024-01-11T02:10:07;103144.31;;;1.28;100.00
80566;BME280;69915;54.862;10.730;2024-01-11T02:12:35;103144.16;;;1.21;100.00
80566;BME280;69915;54.862;10.730;2024-01-11T02:15:01;103132.69;;;1.27;100.00
80566;BME280;69915;54.862;10.730;2024-01-11T02:17:29;103127.81;;;1.31;100.00
80566;BME280;69915;54.862;10.730;2024-01-11T02:19:54;103100.50;;;1.26;100.00
80566;BME280;69915;54.862;10.730;2024-01-11T02:22:33;103099.34;;;1.28;100.00
80566;BME280;69915;54.862;10.730;2024-01-11T02:25:00;103096.47;;;1.30;100.00
80566;BME280;69915;54.862;10.730;2024-01-11T02:27:25;103104.06;;;1.26;100.00
80566;BME280;69915;54.862;10.730;2024-01-11T02:29:51;103091.22;;;1.36;100.00
80566;BME280;69915;54.862;10.730;2024-01-11T02:32:17;103079.16;;;1.24;100.00
80566;BME280;69915;54.862;10.730;2024-01-11T02:34:43;103083.53;;;1.25;100.00
80566;BME280;69915;54.862;10.730;2024-01-11T02:37:08;103070.00;;;1.33;100.00
80566;BME280;69915;54.862;10.730;2024-01-11T02:39:34;103069.88;;;1.27;100.00
80566;BME280;69915;54.862;10.730;2024-01-11T02:42:00;103087.53;;;1.29;100.00
80566;BME280;69915;54.862;10.730;2024-01-11T02:44:27;103085.19;;;1.34;100.00
80566;BME280;69915;54.862;10.730;2024-01-11T02:46:52;103080.41;;;1.44;100.00
80566;BME280;69915;54.862;10.730;2024-01-11T02:49:18;103072.50;;;1.43;100.00
80566;BME280;69915;54.862;10.730;2024-01-11T02:51:44;103077.41;;;1.39;100.00
80566;BME280;69915;54.862;10.730;2024-01-11T02:54:10;103064.28;;;1.36;100.00
80566;BME280;69915;54.862;10.730;2024-01-11T02:56:35;103081.53;;;1.50;100.00
80566;BME280;69915;54.862;10.730;2024-01-11T02:59:01;103083.09;;;1.44;100.00
80566;BME280;69915;54.862;10.730;2024-01-11T03:01:26;103086.47;;;1.46;100.00
80566;BME280;69915;54.862;10.730;2024-01-11T03:03:52;103057.19;;;1.43;100.00
80566;BME280;69915;54.862;10.730;2024-01-11T03:06:18;103047.88;;;1.46;100.00
80566;BME280;69915;54.862;10.730;2024-01-11T03:08:47;103037.94;;;1.46;100.00
80566;BME280;69915;54.862;10.730;2024-01-11T03:11:13;103047.53;;;1.49;100.00
80566;BME280;69915;54.862;10.730;2024-01-11T03:13:39;103035.91;;;1.48;100.00
80566;BME280;69915;54.862;10.730;2024-01-11T03:16:05;103039.59;;;1.47;100.00
80566;BME280;69915;54.862;10.730;2024-01-11T03:18:30;103050.66;;;1.60;100.00
80566;BME280;69915;54.862;10.730;2024-01-11T03:20:56;103047.31;;;1.58;100.00
80566;BME280;69915;54.862;10.730;2024-01-11T03:23:22;103054.00;;;1.62;100.00
80566;BME280;69915;54.862;10.730;2024-01-11T03:25:48;103051.31;;;1.62;100.00
80566;BME280;69915;54.862;10.730;2024-01-11T03:28:13;103040.31;;;1.72;100.00
80566;BME280;69915;54.862;10.730;2024-01-11T03:30:39;103049.59;;;1.70;100.00
80566;BME280;69915;54.862;10.730;2024-01-11T03:33:04;103041.81;;;1.75;100.00
80566;BME280;69915;54.862;10.730;2024-01-11T03:35:30;103042.47;;;1.77;100.00
80566;BME280;69915;54.862;10.730;2024-01-11T03:37:56;103025.94;;;1.80;100.00
80566;BME280;69915;54.862;10.730;2024-01-11T03:40:21;103013.19;;;1.74;100.00
80566;BME280;69915;54.862;10.730;2024-01-11T03:42:47;103013.31;;;1.80;100.00
80566;BME280;69915;54.862;10.730;2024-01-11T03:45:12;103010.91;;;1.85;100.00
80566;BME280;69915;54.862;10.730;2024-01-11T03:47:38;103016.06;;;1.95;100.00
80566;BME280;69915;54.862;10.730;2024-01-11T03:50:04;103003.94;;;1.91;100.00
80566;BME280;69915;54.862;10.730;2024-01-11T03:52:30;103000.88;;;1.94;100.00
80566;BME280;69915;54.862;10.730;2024-01-11T03:54:55;103016.78;;;1.89;100.00
80566;BME280;69915;54.862;10.730;2024-01-11T03:57:21;103018.78;;;1.87;100.00
80566;BME280;69915;54.862;10.730;2024-01-11T03:59:47;103036.00;;;1.86;100.00
80566;BME280;69915;54.862;10.730;2024-01-11T04:02:12;103030.31;;;1.81;100.00
80566;BME280;69915;54.862;10.730;2024-01-11T04:04:38;103015.94;;;1.88;100.00
80566;BME280;69915;54.862;10.730;2024-01-11T04:07:03;103022.81;;;1.91;100.00
80566;BME280;69915;54.862;10.730;2024-01-11T04:09:29;103007.28;;;1.93;100.00
80566;BME280;69915;54.862;10.730;2024-01-11T04:11:54;103011.66;;;1.94;100.00
80566;BME280;69915;54.862;10.730;2024-01-11T04:14:20;103031.69;;;1.99;100.00
80566;BME280;69915;54.862;10.730;2024-01-11T04:16:45;103023.34;;;2.09;100.00
80566;BME280;69915;54.862;10.730;2024-01-11T04:19:11;103016.28;;;2.08;100.00
80566;BME280;69915;54.862;10.730;2024-01-11T04:21:36;103002.13;;;2.06;100.00
80566;BME280;69915;54.862;10.730;2024-01-11T04:24:05;103000.91;;;2.08;100.00
80566;BME280;69915;54.862;10.730;2024-01-11T04:26:34;103006.78;;;2.12;100.00
80566;BME280;69915;54.862;10.730;2024-01-11T04:28:59;103015.19;;;2.17;100.00
80566;BME280;69915;54.862;10.730;2024-01-11T04:31:26;103004.22;;;2.18;100.00
80566;BME280;69915;54.862;10.730;2024-01-11T04:33:51;102984.47;;;2.18;100.00
80566;BME280;69915;54.862;10.730;2024-01-11T04:36:17;102987.53;;;2.15;100.00
80566;BME280;69915;54.862;10.730;2024-01-11T04:38:42;102985.78;;;2.22;100.00
80566;BME280;69915;54.862;10.730;2024-01-11T04:41:09;102984.47;;;2.18;100.00
80566;BME280;69915;54.862;10.730;2024-01-11T04:43:42;102977.88;;;2.20;100.00
80566;BME280;69915;54.862;10.730;2024-01-11T04:46:19;102976.09;;;2.13;100.00
80566;BME280;69915;54.862;10.730;2024-01-11T04:48:45;102978.06;;;2.19;100.00
80566;BME280;69915;54.862;10.730;2024-01-11T04:51:12;102976.13;;;2.28;100.00
80566;BME280;69915;54.862;10.730;2024-01-11T04:53:41;102977.88;;;2.20;100.00
80566;BME280;69915;54.862;10.730;2024-01-11T04:56:08;102975.47;;;2.26;100.00
80566;BME280;69915;54.862;10.730;2024-01-11T04:58:35;102974.00;;;2.23;100.00
80566;BME280;69915;54.862;10.730;2024-01-11T05:01:00;102974.25;;;2.28;100.00
80566;BME280;69915;54.862;10.730;2024-01-11T05:03:26;102979.28;;;2.31;100.00
80566;BME280;69915;54.862;10.730;2024-01-11T05:05:51;102970.94;;;2.26;100.00
80566;BME280;69915;54.862;10.730;2024-01-11T05:08:17;102963.28;;;2.30;100.00
80566;BME280;69915;54.862;10.730;2024-01-11T05:10:42;102965.59;;;2.33;100.00
80566;BME280;69915;54.862;10.730;2024-01-11T05:13:10;102947.56;;;2.33;100.00
80566;BME280;69915;54.862;10.730;2024-01-11T05:15:35;102943.94;;;2.26;100.00
80566;BME280;69915;54.862;10.730;2024-01-11T05:18:00;102939.44;;;2.33;100.00
80566;BME280;69915;54.862;10.730;2024-01-11T05:20:26;102938.59;;;2.33;100.00
80566;BME280;69915;54.862;10.730;2024-01-11T05:22:51;102929.03;;;2.30;100.00
80566;BME280;69915;54.862;10.730;2024-01-11T05:25:17;102930.06;;;2.29;100.00
80566;BME280;69915;54.862;10.730;2024-01-11T05:27:42;102939.34;;;2.27;100.00
80566;BME280;69915;54.862;10.730;2024-01-11T05:30:08;102936.47;;;2.28;100.00
80566;BME280;69915;54.862;10.730;2024-01-11T05:32:35;102959.09;;;2.27;100.00
80566;BME280;69915;54.862;10.730;2024-01-11T05:35:00;102972.22;;;2.30;100.00
80566;BME280;69915;54.862;10.730;2024-01-11T05:37:26;102972.94;;;2.24;100.00
80566;BME280;69915;54.862;10.730;2024-01-11T05:39:51;102981.03;;;2.24;100.00
80566;BME280;69915;54.862;10.730;2024-01-11T05:42:17;102975.13;;;2.29;100.00
80566;BME280;69915;54.862;10.730;2024-01-11T05:44:43;102980.75;;;2.19;100.00
80566;BME280;69915;54.862;10.730;2024-01-11T05:47:09;102974.34;;;2.20;100.00
80566;BME280;69915;54.862;10.730;2024-01-11T05:49:34;102974.81;;;2.24;100.00
80566;BME280;69915;54.862;10.730;2024-01-11T05:52:00;102968.66;;;2.15;100.00
80566;BME280;69915;54.862;10.730;2024-01-11T05:54:25;102973.69;;;2.18;100.00
80566;BME280;69915;54.862;10.730;2024-01-11T05:56:53;102970.72;;;2.28;100.00
80566;BME280;69915;54.862;10.730;2024-01-11T05:59:21;102968.88;;;2.28;100.00
80566;BME280;69915;54.862;10.730;2024-01-11T06:01:47;102964.84;;;2.24;100.00
80566;BME280;69915;54.862;10.730;2024-01-11T06:04:12;102978.66;;;2.29;100.00
80566;BME280;69915;54.862;10.730;2024-01-11T06:06:39;102977.22;;;2.18;100.00
80566;BME280;69915;54.862;10.730;2024-01-11T06:09:05;102970.25;;;2.24;100.00
80566;BME280;69915;54.862;10.730;2024-01-11T06:11:31;102975.72;;;2.16;100.00
80566;BME280;69915;54.862;10.730;2024-01-11T06:13:57;102975.28;;;2.27;100.00
80566;BME280;69915;54.862;10.730;2024-01-11T06:16:22;102968.03;;;2.28;100.00
80566;BME280;69915;54.862;10.730;2024-01-11T06:18:48;102981.53;;;2.28;100.00
80566;BME280;69915;54.862;10.730;2024-01-11T06:21:13;102977.44;;;2.32;100.00
80566;BME280;69915;54.862;10.730;2024-01-11T06:23:40;102973.44;;;2.28;100.00
80566;BME280;69915;54.862;10.730;2024-01-11T06:26:07;102980.63;;;2.35;100.00
80566;BME280;69915;54.862;10.730;2024-01-11T06:28:33;102987.28;;;2.25;100.00
80566;BME280;69915;54.862;10.730;2024-01-11T06:30:58;102984.69;;;2.31;100.00
80566;BME280;69915;54.862;10.730;2024-01-11T06:33:24;102990.56;;;2.35;100.00
80566;BME280;69915;54.862;10.730;2024-01-11T06:35:49;102988.72;;;2.35;100.00
80566;BME280;69915;54.862;10.730;2024-01-11T06:38:15;102981.34;;;2.29;100.00
80566;BME280;69915;54.862;10.730;2024-01-11T06:40:41;102976.41;;;2.33;100.00
80566;BME280;69915;54.862;10.730;2024-01-11T06:43:06;102964.31;;;2.29;100.00
80566;BME280;69915;54.862;10.730;2024-01-11T06:45:32;102964.41;;;2.35;100.00
80566;BME280;69915;54.862;10.730;2024-01-11T06:47:57;102977.13;;;2.27;100.00
80566;BME280;69915;54.862;10.730;2024-01-11T06:50:23;102992.50;;;2.26;100.00
80566;BME280;69915;54.862;10.730;2024-01-11T06:52:48;102985.91;;;2.29;100.00
80566;BME280;69915;54.862;10.730;2024-01-11T06:55:14;102986.38;;;2.32;100.00
80566;BME280;69915;54.862;10.730;2024-01-11T06:57:39;102988.78;;;2.27;100.00
80566;BME280;69915;54.862;10.730;2024-01-11T07:00:06;102989.25;;;2.31;100.00
80566;BME280;69915;54.862;10.730;2024-01-11T07:02:32;102974.47;;;2.41;100.00
80566;BME280;69915;54.862;10.730;2024-01-11T07:04:58;102983.69;;;2.47;100.00
80566;BME280;69915;54.862;10.730;2024-01-11T07:07:23;102994.03;;;2.43;100.00
80566;BME280;69915;54.862;10.730;2024-01-11T07:09:49;102996.06;;;2.41;100.00
80566;BME280;69915;54.862;10.730;2024-01-11T07:12:14;102994.88;;;2.44;100.00
80566;BME280;69915;54.862;10.730;2024-01-11T07:14:40;102959.09;;;2.42;100.00
80566;BME280;69915;54.862;10.730;2024-01-11T07:17:05;102964.97;;;2.45;100.00
80566;BME280;69915;54.862;10.730;2024-01-11T07:19:31;102966.66;;;2.46;100.00
80566;BME280;69915;54.862;10.730;2024-01-11T07:21:56;102947.28;;;2.57;100.00
80566;BME280;69915;54.862;10.730;2024-01-11T07:24:22;102943.94;;;2.55;100.00
80566;BME280;69915;54.862;10.730;2024-01-11T07:26:47;102963.13;;;2.60;100.00
80566;BME280;69915;54.862;10.730;2024-01-11T07:29:14;102963.00;;;2.54;100.00
80566;BME280;69915;54.862;10.730;2024-01-11T07:31:39;102955.00;;;2.46;100.00
80566;BME280;69915;54.862;10.730;2024-01-11T07:34:05;102985.47;;;2.54;100.00
80566;BME280;69915;54.862;10.730;2024-01-11T07:36:30;102963.31;;;2.44;100.00
80566;BME280;69915;54.862;10.730;2024-01-11T07:38:56;102973.44;;;2.42;100.00
80566;BME280;69915;54.862;10.730;2024-01-11T07:41:22;102977.66;;;2.59;100.00
80566;BME280;69915;54.862;10.730;2024-01-11T07:43:48;102960.88;;;2.49;100.00
80566;BME280;69915;54.862;10.730;2024-01-11T07:46:13;102966.28;;;2.49;100.00
80566;BME280;69915;54.862;10.730;2024-01-11T07:48:39;102975.97;;;2.58;100.00
80566;BME280;69915;54.862;10.730;2024-01-11T07:51:04;102971.31;;;2.52;100.00
80566;BME280;69915;54.862;10.730;2024-01-11T07:53:30;102964.06;;;2.53;100.00
80566;BME280;69915;54.862;10.730;2024-01-11T07:55:57;102964.97;;;2.45;100.00
80566;BME280;69915;54.862;10.730;2024-01-11T07:58:23;102973.00;;;2.53;100.00
80566;BME280;69915;54.862;10.730;2024-01-11T08:00:48;102959.50;;;2.53;100.00
80566;BME280;69915;54.862;10.730;2024-01-11T08:03:14;102959.88;;;2.50;100.00
80566;BME280;69915;54.862;10.730;2024-01-11T08:05:40;102955.13;;;2.52;100.00
80566;BME280;69915;54.862;10.730;2024-01-11T08:08:05;102950.38;;;2.69;100.00
80566;BME280;69915;54.862;10.730;2024-01-11T08:10:32;102952.41;;;2.67;100.00
80566;BME280;69915;54.862;10.730;2024-01-11T08:12:57;102950.44;;;2.75;100.00
80566;BME280;69915;54.862;10.730;2024-01-11T08:15:24;102946.16;;;2.66;100.00
80566;BME280;69915;54.862;10.730;2024-01-11T08:17:50;102944.78;;;2.70;100.00
80566;BME280;69915;54.862;10.730;2024-01-11T08:20:16;102950.38;;;2.69;100.00
80566;BME280;69915;54.862;10.730;2024-01-11T08:22:42;102953.06;;;2.84;100.00
80566;BME280;69915;54.862;10.730;2024-01-11T08:25:09;102938.63;;;2.77;100.00
80566;BME280;69915;54.862;10.730;2024-01-11T08:27:34;102928.44;;;2.79;100.00
80566;BME280;69915;54.862;10.730;2024-01-11T08:30:00;102919.72;;;2.77;100.00
80566;BME280;69915;54.862;10.730;2024-01-11T08:32:26;102919.41;;;2.86;100.00
80566;BME280;69915;54.862;10.730;2024-01-11T08:34:52;102932.19;;;2.78;100.00
80566;BME280;69915;54.862;10.730;2024-01-11T08:37:18;102927.69;;;2.85;100.00
80566;BME280;69915;54.862;10.730;2024-01-11T08:39:44;102939.63;;;2.75;100.00
80566;BME280;69915;54.862;10.730;2024-01-11T08:42:11;102941.50;;;2.90;100.00
80566;BME280;69915;54.862;10.730;2024-01-11T08:44:41;102944.09;;;2.98;100.00
80566;BME280;69915;54.862;10.730;2024-01-11T08:47:06;102934.69;;;2.94;100.00
80566;BME280;69915;54.862;10.730;2024-01-11T08:49:32;102944.34;;;3.03;100.00
80566;BME280;69915;54.862;10.730;2024-01-11T08:51:58;102946.03;;;3.04;100.00
80566;BME280;69915;54.862;10.730;2024-01-11T08:54:23;102949.66;;;3.11;99.56
80566;BME280;69915;54.862;10.730;2024-01-11T08:56:48;102951.63;;;3.02;99.12
80566;BME280;69915;54.862;10.730;2024-01-11T08:59:14;102947.00;;;2.96;99.35
80566;BME280;69915;54.862;10.730;2024-01-11T09:01:39;102956.66;;;2.91;99.14
80566;BME280;69915;54.862;10.730;2024-01-11T09:04:05;102959.13;;;2.71;99.27
80566;BME280;69915;54.862;10.730;2024-01-11T09:06:31;102964.63;;;2.78;99.32
80566;BME280;69915;54.862;10.730;2024-01-11T09:08:57;102967.03;;;2.87;99.25
80566;BME280;69915;54.862;10.730;2024-01-11T09:11:22;102977.75;;;2.66;98.95
80566;BME280;69915;54.862;10.730;2024-01-11T09:13:48;102974.00;;;2.96;99.51
80566;BME280;69915;54.862;10.730;2024-01-11T09:16:15;102972.13;;;2.97;98.62
80566;BME280;69915;54.862;10.730;2024-01-11T09:18:41;102972.41;;;3.02;98.25
80566;BME280;69915;54.862;10.730;2024-01-11T09:21:07;102964.88;;;3.12;97.55
80566;BME280;69915;54.862;10.730;2024-01-11T09:23:35;102968.59;;;2.96;97.20
80566;BME280;69915;54.862;10.730;2024-01-11T09:26:00;102988.63;;;3.02;97.38
80566;BME280;69915;54.862;10.730;2024-01-11T09:28:26;103004.09;;;2.79;97.48
80566;BME280;69915;54.862;10.730;2024-01-11T09:30:51;102992.84;;;2.75;97.76
80566;BME280;69915;54.862;10.730;2024-01-11T09:33:17;102996.09;;;2.70;98.01
80566;BME280;69915;54.862;10.730;2024-01-11T09:35:42;103005.78;;;2.80;98.18
80566;BME280;69915;54.862;10.730;2024-01-11T09:38:08;102999.16;;;2.82;98.43
80566;BME280;69915;54.862;10.730;2024-01-11T09:40:33;102994.59;;;3.12;98.06
80566;BME280;69915;54.862;10.730;2024-01-11T09:43:01;103001.56;;;3.06;97.05
80566;BME280;69915;54.862;10.730;2024-01-11T09:45:29;102994.94;;;3.09;97.08
80566;BME280;69915;54.862;10.730;2024-01-11T09:47:54;103007.34;;;3.03;97.32
80566;BME280;69915;54.862;10.730;2024-01-11T09:50:21;103012.25;;;3.29;96.90
80566;BME280;69915;54.862;10.730;2024-01-11T09:52:49;103008.84;;;3.20;96.33
80566;BME280;69915;54.862;10.730;2024-01-11T09:55:16;102999.59;;;3.29;95.65
80566;BME280;69915;54.862;10.730;2024-01-11T09:57:44;103008.16;;;3.18;95.71
80566;BME280;69915;54.862;10.730;2024-01-11T10:00:19;103006.88;;;3.14;95.76
80566;BME280;69915;54.862;10.730;2024-01-11T10:02:47;103011.53;;;3.06;95.68
80566;BME280;69915;54.862;10.730;2024-01-11T10:05:13;103003.50;;;3.27;96.16
80566;BME280;69915;54.862;10.730;2024-01-11T10:07:41;103007.31;;;3.33;95.71
80566;BME280;69915;54.862;10.730;2024-01-11T10:10:08;103006.47;;;3.32;95.28
80566;BME280;69915;54.862;10.730;2024-01-11T10:12:37;102995.44;;;3.48;94.95
80566;BME280;69915;54.862;10.730;2024-01-11T10:15:07;103012.06;;;3.30;94.94
80566;BME280;69915;54.862;10.730;2024-01-11T10:17:43;103010.06;;;3.18;95.08
80566;BME280;69915;54.862;10.730;2024-01-11T10:20:13;103012.44;;;3.42;94.82
80566;BME280;69915;54.862;10.730;2024-01-11T10:22:49;103010.53;;;3.57;94.55
80566;BME280;69915;54.862;10.730;2024-01-11T10:25:16;103018.47;;;3.44;94.44
80566;BME280;69915;54.862;10.730;2024-01-11T10:27:44;103018.97;;;3.33;94.23
80566;BME280;69915;54.862;10.730;2024-01-11T10:30:12;103003.34;;;3.50;94.07
80566;BME280;69915;54.862;10.730;2024-01-11T10:32:46;103011.31;;;3.58;94.12
80566;BME280;69915;54.862;10.730;2024-01-11T10:35:12;103016.19;;;3.62;93.94
80566;BME280;69915;54.862;10.730;2024-01-11T10:37:38;103003.28;;;3.64;93.14
80566;BME280;69915;54.862;10.730;2024-01-11T10:40:08;102995.56;;;3.61;93.62
80566;BME280;69915;54.862;10.730;2024-01-11T10:42:44;102989.38;;;3.67;93.21
80566;BME280;69915;54.862;10.730;2024-01-11T10:45:15;102980.16;;;3.41;92.85
80566;BME280;69915;54.862;10.730;2024-01-11T10:47:53;102990.47;;;3.52;93.58
80566;BME280;69915;54.862;10.730;2024-01-11T10:50:20;102980.25;;;3.68;93.31
80566;BME280;69915;54.862;10.730;2024-01-11T10:53:17;102983.47;;;3.57;92.84
80566;BME280;69915;54.862;10.730;2024-01-11T10:55:46;102983.84;;;3.54;92.69
80566;BME280;69915;54.862;10.730;2024-01-11T10:58:13;102985.13;;;3.58;93.10
80566;BME280;69915;54.862;10.730;2024-01-11T11:00:40;102981.25;;;3.46;93.53
80566;BME280;69915;54.862;10.730;2024-01-11T11:03:06;102978.28;;;3.41;93.83
80566;BME280;69915;54.862;10.730;2024-01-11T11:05:34;102981.66;;;3.64;93.20
80566;BME280;69915;54.862;10.730;2024-01-11T11:08:03;102993.75;;;3.47;93.50
80566;BME280;69915;54.862;10.730;2024-01-11T11:10:32;102994.72;;;3.25;93.22
80566;BME280;69915;54.862;10.730;2024-01-11T11:12:59;102997.47;;;3.10;93.68
80566;BME280;69915;54.862;10.730;2024-01-11T11:15:28;102990.56;;;3.08;94.09
80566;BME280;69915;54.862;10.730;2024-01-11T11:17:54;102988.63;;;3.02;94.36
80566;BME280;69915;54.862;10.730;2024-01-11T11:20:20;102984.31;;;3.07;95.30
80566;BME280;69915;54.862;10.730;2024-01-11T11:23:09;102981.53;;;3.01;95.37
80566;BME280;69915;54.862;10.730;2024-01-11T11:25:36;102985.47;;;2.98;96.15
80566;BME280;69915;54.862;10.730;2024-01-11T11:28:02;102982.47;;;3.08;96.03
80566;BME280;69915;54.862;10.730;2024-01-11T11:30:30;102976.94;;;3.16;95.96
80566;BME280;69915;54.862;10.730;2024-01-11T11:32:56;102975.56;;;3.20;95.83
80566;BME280;69915;54.862;10.730;2024-01-11T11:35:25;102988.19;;;3.34;96.01
80566;BME280;69915;54.862;10.730;2024-01-11T11:37:55;102990.16;;;3.25;96.07
80566;BME280;69915;54.862;10.730;2024-01-11T11:40:42;102973.25;;;3.38;95.69
80566;BME280;69915;54.862;10.730;2024-01-11T11:43:10;102974.03;;;3.32;95.91
80566;BME280;69915;54.862;10.730;2024-01-11T11:45:37;102962.44;;;3.38;96.00
80566;BME280;69915;54.862;10.730;2024-01-11T11:51:05;102958.53;;;3.41;95.35
80566;BME280;69915;54.862;10.730;2024-01-11T11:53:33;102960.16;;;3.56;95.24
80566;BME280;69915;54.862;10.730;2024-01-11T11:56:00;102952.84;;;3.36;95.74
80566;BME280;69915;54.862;10.730;2024-01-11T11:58:27;102955.25;;;3.45;95.73
80566;BME280;69915;54.862;10.730;2024-01-11T12:00:57;102967.22;;;3.36;95.34
80566;BME280;69915;54.862;10.730;2024-01-11T12:03:30;102956.13;;;3.31;95.65
80566;BME280;69915;54.862;10.730;2024-01-11T12:05:57;102958.72;;;3.39;95.60
80566;BME280;69915;54.862;10.730;2024-01-11T12:08:23;102966.16;;;3.37;95.73
80566;BME280;69915;54.862;10.730;2024-01-11T12:10:48;102951.00;;;3.36;95.84
80566;BME280;69915;54.862;10.730;2024-01-11T12:13:14;102945.00;;;3.41;95.74
80566;BME280;69915;54.862;10.730;2024-01-11T12:15:40;102957.97;;;3.45;95.94
80566;BME280;69915;54.862;10.730;2024-01-11T12:18:06;102953.56;;;3.44;95.82
80566;BME280;69915;54.862;10.730;2024-01-11T12:20:35;102951.25;;;3.41;95.59
80566;BME280;69915;54.862;10.730;2024-01-11T12:23:01;102952.53;;;3.24;95.46
80566;BME280;69915;54.862;10.730;2024-01-11T12:25:28;102954.47;;;3.30;95.57
80566;BME280;69915;54.862;10.730;2024-01-11T12:27:54;102961.91;;;3.28;95.31
80566;BME280;69915;54.862;10.730;2024-01-11T12:30:24;102960.81;;;3.22;95.54
80566;BME280;69915;54.862;10.730;2024-01-11T12:32:59;102960.13;;;3.35;95.51
80566;BME280;69915;54.862;10.730;2024-01-11T12:35:27;102953.75;;;3.43;95.42
80566;BME280;69915;54.862;10.730;2024-01-11T12:37:58;102956.41;;;3.36;95.75
80566;BME280;69915;54.862;10.730;2024-01-11T12:40:24;102944.94;;;3.34;95.70
80566;BME280;69915;54.862;10.730;2024-01-11T12:42:50;102951.31;;;3.26;95.71